createdAt,value
2022-11-26T00:00:27.920Z,0.11
2022-11-26T00:01:29.800Z,0.15
2022-11-26T00:02:31.905Z,0.12
2022-11-26T00:03:34.034Z,0.24
2022-11-26T00:04:38.375Z,0.18
2022-11-26T00:05:43.998Z,0.20
2022-11-26T00:06:46.000Z,0.26
2022-11-26T00:07:54.465Z,0.24
2022-11-26T00:08:57.835Z,0.30
2022-11-26T00:10:01.368Z,0.24
2022-11-26T00:11:06.644Z,0.13
2022-11-26T00:12:20.930Z,0.15
2022-11-26T00:14:35.701Z,0.23
2022-11-26T00:15:37.870Z,0.12
2022-11-26T00:16:41.004Z,0.20
2022-11-26T00:17:43.201Z,0.17
2022-11-26T00:18:45.039Z,0.13
2022-11-26T00:19:48.614Z,0.22
2022-11-26T00:20:54.461Z,0.29
2022-11-26T00:21:56.345Z,0.20
2022-11-26T00:23:01.749Z,0.26
2022-11-26T00:24:06.385Z,0.28
2022-11-26T00:25:24.406Z,0.19
2022-11-26T00:26:26.510Z,0.19
2022-11-26T00:27:28.505Z,0.30
2022-11-26T00:28:33.547Z,0.26
2022-11-26T00:29:35.427Z,0.27
2022-11-26T00:30:37.480Z,0.26
2022-11-26T00:31:40.229Z,0.31
2022-11-26T00:32:42.340Z,0.24
2022-11-26T00:33:44.819Z,0.28
2022-11-26T00:34:46.995Z,0.30
2022-11-26T00:35:52.186Z,0.20
2022-11-26T00:36:54.309Z,0.23
2022-11-26T00:37:57.365Z,0.16
2022-11-26T00:39:05.670Z,0.19
2022-11-26T00:41:30.467Z,0.31
2022-11-26T00:42:32.630Z,0.27
2022-11-26T00:43:35.691Z,0.31
2022-11-26T00:44:37.789Z,0.27
2022-11-26T00:45:40.577Z,0.33
2022-11-26T00:46:44.618Z,0.27
2022-11-26T00:47:46.511Z,0.29
2022-11-26T00:48:48.983Z,0.32
2022-11-26T00:49:50.875Z,0.28
2022-11-26T00:50:53.223Z,0.23
2022-11-26T00:51:55.420Z,0.27
2022-11-26T00:52:57.317Z,0.23
2022-11-26T00:54:02.006Z,0.27
2022-11-26T00:55:08.051Z,0.34
2022-11-26T00:56:19.232Z,0.40
2022-11-26T00:57:21.392Z,0.41
2022-11-26T00:58:29.214Z,0.44
2022-11-26T00:59:31.158Z,0.56
2022-11-26T01:00:34.928Z,0.51
2022-11-26T01:01:36.959Z,0.43
2022-11-26T01:02:39.058Z,0.53
2022-11-26T01:03:43.402Z,0.38
2022-11-26T01:04:45.362Z,0.29
2022-11-26T01:05:56.523Z,0.36
2022-11-26T01:06:58.582Z,0.45
2022-11-26T01:08:03.002Z,0.39
2022-11-26T01:09:08.682Z,0.36
2022-11-26T01:10:20.697Z,0.32
2022-11-26T01:11:23.632Z,0.39
2022-11-26T01:12:25.490Z,0.34
2022-11-26T01:13:28.396Z,0.36
2022-11-26T01:14:30.275Z,0.18
2022-11-26T01:15:32.149Z,0.28
2022-11-26T01:16:36.295Z,0.24
2022-11-26T01:17:38.697Z,0.39
2022-11-26T01:18:40.920Z,0.47
2022-11-26T01:19:42.811Z,0.51
2022-11-26T01:20:45.475Z,0.36
2022-11-26T01:21:47.336Z,0.40
2022-11-26T01:22:50.645Z,0.36
2022-11-26T01:23:52.871Z,0.46
2022-11-26T01:24:54.829Z,0.32
2022-11-26T01:25:56.746Z,0.38
2022-11-26T01:26:58.835Z,0.39
2022-11-26T01:28:00.702Z,0.43
2022-11-26T01:29:03.004Z,0.43
2022-11-26T01:30:11.899Z,0.53
2022-11-26T01:32:29.429Z,0.58
2022-11-26T01:33:30.393Z,0.45
2022-11-26T01:34:32.488Z,0.48
2022-11-26T01:35:36.047Z,0.42
2022-11-26T01:36:39.833Z,0.47
2022-11-26T01:37:42.138Z,0.43
2022-11-26T01:38:44.156Z,0.34
2022-11-26T01:39:46.024Z,0.44
2022-11-26T01:40:57.623Z,0.42
2022-11-26T01:42:04.130Z,0.41
2022-11-26T01:43:27.967Z,0.35
2022-11-26T01:44:33.295Z,0.43
2022-11-26T01:45:35.258Z,0.36
2022-11-26T01:46:40.026Z,0.25
2022-11-26T01:47:44.332Z,0.23
2022-11-26T01:48:48.152Z,0.31
2022-11-26T01:50:28.862Z,0.25
2022-11-26T01:51:30.942Z,0.34
2022-11-26T01:52:33.008Z,0.29
2022-11-26T01:53:51.028Z,0.29
2022-11-26T01:54:54.614Z,0.31
2022-11-26T01:57:20.797Z,0.47
2022-11-26T01:58:26.763Z,0.33
2022-11-26T01:59:35.242Z,0.43
2022-11-26T02:00:37.777Z,0.42
2022-11-26T02:01:39.958Z,0.40
2022-11-26T02:02:43.282Z,0.50
2022-11-26T02:03:58.324Z,0.35
2022-11-26T02:05:13.221Z,0.42
2022-11-26T02:06:19.008Z,0.39
2022-11-26T02:07:21.505Z,0.49
2022-11-26T02:08:27.261Z,0.57
2022-11-26T02:09:29.830Z,0.66
2022-11-26T02:10:33.707Z,0.42
2022-11-26T02:11:36.154Z,0.39
2022-11-26T02:12:38.947Z,0.40
2022-11-26T02:13:41.178Z,0.49
2022-11-26T02:14:45.023Z,0.43
2022-11-26T02:17:26.876Z,0.53
2022-11-26T02:18:32.534Z,0.46
2022-11-26T02:20:01.417Z,0.45
2022-11-26T02:21:07.073Z,0.54
2022-11-26T02:22:32.571Z,0.44
2022-11-26T02:24:12.234Z,0.51
2022-11-26T02:25:19.031Z,0.48
2022-11-26T02:26:30.843Z,0.49
2022-11-26T02:27:42.435Z,0.44
2022-11-26T02:29:15.842Z,0.44
2022-11-26T02:30:18.194Z,0.44
2022-11-26T02:31:32.553Z,0.46
2022-11-26T02:33:00.713Z,0.42
2022-11-26T02:34:12.532Z,0.42
2022-11-26T02:35:23.723Z,0.48
2022-11-26T02:37:43.425Z,0.62
2022-11-26T02:38:45.391Z,0.50
2022-11-26T02:39:47.295Z,0.57
2022-11-26T02:40:51.595Z,0.56
2022-11-26T02:41:57.682Z,0.44
2022-11-26T02:42:59.586Z,0.49
2022-11-26T02:44:02.055Z,0.49
2022-11-26T02:45:17.250Z,0.41
2022-11-26T02:46:20.890Z,0.46
2022-11-26T02:47:25.977Z,0.46
2022-11-26T02:48:34.510Z,0.50
2022-11-26T02:49:39.511Z,0.48
2022-11-26T02:50:51.588Z,0.38
2022-11-26T02:51:57.246Z,0.49
2022-11-26T02:53:00.764Z,0.46
2022-11-26T02:54:06.453Z,0.42
2022-11-26T02:55:12.195Z,0.43
2022-11-26T02:56:20.857Z,0.47
2022-11-26T02:57:26.507Z,0.47
2022-11-26T02:58:29.902Z,0.39
2022-11-26T02:59:32.922Z,0.43
2022-11-26T03:00:38.189Z,0.40
2022-11-26T03:01:50.108Z,0.42
2022-11-26T03:02:58.568Z,0.46
2022-11-26T03:04:04.386Z,0.48
2022-11-26T03:05:09.274Z,0.52
2022-11-26T03:06:15.075Z,0.44
2022-11-26T03:07:19.714Z,0.41
2022-11-26T03:08:22.275Z,0.32
2022-11-26T03:09:24.265Z,0.40
2022-11-26T03:10:27.597Z,0.42
2022-11-26T03:11:33.784Z,0.47
2022-11-26T03:12:36.104Z,0.52
2022-11-26T03:13:37.989Z,0.44
2022-11-26T03:14:40.083Z,0.47
2022-11-26T03:15:43.820Z,0.48
2022-11-26T03:16:45.866Z,0.43
2022-11-26T03:17:49.372Z,0.45
2022-11-26T03:18:51.290Z,0.50
2022-11-26T03:19:53.850Z,0.53
2022-11-26T03:20:55.942Z,0.44
2022-11-26T03:21:57.792Z,0.44
2022-11-26T03:22:59.871Z,0.30
2022-11-26T03:24:01.744Z,0.41
2022-11-26T03:25:05.018Z,0.43
2022-11-26T03:26:07.579Z,0.47
2022-11-26T03:27:09.480Z,0.49
2022-11-26T03:28:11.351Z,0.56
2022-11-26T03:29:13.228Z,0.46
2022-11-26T03:30:15.799Z,0.49
2022-11-26T03:31:17.836Z,0.54
2022-11-26T03:32:19.941Z,0.49
2022-11-26T03:33:21.821Z,0.44
2022-11-26T03:34:25.739Z,0.47
2022-11-26T03:35:28.071Z,0.46
2022-11-26T03:36:30.084Z,0.50
2022-11-26T03:37:32.093Z,0.54
2022-11-26T03:38:36.210Z,0.56
2022-11-26T03:39:38.101Z,0.58
2022-11-26T03:40:41.033Z,0.47
2022-11-26T03:41:43.968Z,0.50
2022-11-26T03:42:45.915Z,0.41
2022-11-26T03:43:47.769Z,0.45
2022-11-26T03:44:49.871Z,0.48
2022-11-26T03:45:51.919Z,0.43
2022-11-26T03:46:54.415Z,0.45
2022-11-26T03:47:56.270Z,0.42
2022-11-26T03:48:58.119Z,0.39
2022-11-26T03:49:59.971Z,0.30
2022-11-26T03:51:01.822Z,0.34
2022-11-26T03:52:03.976Z,0.28
2022-11-26T03:53:05.841Z,0.32
2022-11-26T03:54:07.989Z,0.26
2022-11-26T03:55:10.971Z,0.34
2022-11-26T03:56:13.181Z,0.39
2022-11-26T03:57:15.082Z,0.47
2022-11-26T03:58:16.947Z,0.45
2022-11-26T03:59:18.828Z,0.40
2022-11-26T04:00:21.425Z,0.50
2022-11-26T04:01:23.471Z,0.51
2022-11-26T04:02:25.948Z,0.42
2022-11-26T04:03:27.892Z,0.36
2022-11-26T04:04:31.659Z,0.42
2022-11-26T04:05:33.642Z,0.26
2022-11-26T04:06:35.887Z,0.43
2022-11-26T04:07:37.826Z,0.54
2022-11-26T04:08:40.286Z,0.49
2022-11-26T04:09:42.228Z,0.31
2022-11-26T04:10:44.207Z,0.33
2022-11-26T04:11:46.154Z,0.28
2022-11-26T04:12:48.002Z,0.38
2022-11-26T04:13:49.846Z,0.37
2022-11-26T04:14:51.682Z,0.45
2022-11-26T04:15:53.652Z,0.48
2022-11-26T04:16:55.873Z,0.39
2022-11-26T04:17:57.871Z,0.38
2022-11-26T04:18:59.848Z,0.48
2022-11-26T04:20:02.028Z,0.50
2022-11-26T04:21:08.331Z,0.56
2022-11-26T04:22:10.243Z,0.55
2022-11-26T04:23:12.913Z,0.62
2022-11-26T04:24:14.874Z,0.59
2022-11-26T04:25:16.936Z,0.62
2022-11-26T04:26:19.020Z,0.51
2022-11-26T04:27:20.931Z,0.48
2022-11-26T04:28:22.781Z,0.48
2022-11-26T04:29:24.644Z,0.31
2022-11-26T04:30:26.607Z,0.47
2022-11-26T04:31:29.045Z,0.40
2022-11-26T04:32:31.229Z,0.31
2022-11-26T04:33:33.107Z,0.33
2022-11-26T04:34:34.961Z,0.30
2022-11-26T04:35:37.563Z,0.30
2022-11-26T04:36:39.639Z,0.35
2022-11-26T04:37:41.812Z,0.41
2022-11-26T04:38:43.879Z,0.46
2022-11-26T04:39:45.741Z,0.41
2022-11-26T04:40:48.878Z,0.28
2022-11-26T04:41:50.777Z,0.28
2022-11-26T04:42:53.415Z,0.30
2022-11-26T04:43:55.388Z,0.38
2022-11-26T04:44:57.277Z,0.34
2022-11-26T04:45:59.466Z,0.40
2022-11-26T04:47:01.611Z,0.35
2022-11-26T04:48:05.328Z,0.38
2022-11-26T04:49:07.205Z,0.45
2022-11-26T04:50:11.006Z,0.46
2022-11-26T04:51:12.876Z,0.54
2022-11-26T04:52:14.753Z,0.49
2022-11-26T04:53:17.243Z,0.40
2022-11-26T04:54:19.179Z,0.50
2022-11-26T04:55:21.270Z,0.60
2022-11-26T04:56:23.510Z,0.49
2022-11-26T04:57:27.540Z,0.53
2022-11-26T04:58:29.750Z,0.50
2022-11-26T04:59:31.613Z,0.48
2022-11-26T05:00:34.619Z,0.40
2022-11-26T05:01:38.310Z,0.40
2022-11-26T05:02:40.770Z,0.34
2022-11-26T05:03:42.810Z,0.34
2022-11-26T05:04:46.673Z,0.38
2022-11-26T05:05:49.328Z,0.35
2022-11-26T05:06:51.313Z,0.43
2022-11-26T05:07:53.216Z,0.28
2022-11-26T05:08:55.340Z,0.39
2022-11-26T05:09:57.522Z,0.41
2022-11-26T05:10:59.493Z,0.29
2022-11-26T05:12:01.367Z,0.31
2022-11-26T05:13:03.664Z,0.46
2022-11-26T05:14:05.691Z,0.46
2022-11-26T05:15:08.623Z,0.26
2022-11-26T05:16:10.665Z,0.35
2022-11-26T05:17:12.665Z,0.34
2022-11-26T05:18:14.533Z,0.39
2022-11-26T10:46:51.372Z,0.59
2022-11-26T10:47:55.134Z,0.56
2022-11-26T10:49:17.403Z,0.62
2022-11-26T10:51:30.491Z,0.62
2022-11-26T10:52:33.327Z,0.62
2022-11-26T10:54:50.154Z,0.77
2022-11-26T10:55:55.990Z,0.68
2022-11-26T10:57:07.778Z,0.71
2022-11-26T10:58:16.593Z,0.68
2022-11-26T10:59:34.257Z,0.65
2022-11-26T11:00:40.174Z,0.68
2022-11-26T11:01:42.346Z,0.52
2022-11-26T11:02:47.991Z,0.63
2022-11-26T11:04:09.204Z,0.53
2022-11-26T11:05:00.179Z,0.58
2022-11-26T11:06:14.488Z,0.66
2022-11-26T11:07:37.004Z,0.75
2022-11-26T11:08:39.175Z,0.77
2022-11-26T11:09:41.091Z,0.78
2022-11-26T11:10:54.979Z,0.59
2022-11-26T11:12:18.904Z,0.62
2022-11-26T11:13:23.791Z,0.59
2022-11-26T11:14:28.751Z,0.64
2022-11-26T11:15:33.277Z,0.74
2022-11-26T11:16:42.204Z,0.76
2022-11-26T11:17:48.575Z,0.80
2022-11-26T11:18:56.655Z,0.82
2022-11-26T11:20:02.333Z,0.78
2022-11-26T11:21:06.294Z,0.79
2022-11-26T11:22:11.967Z,0.80
2022-11-26T11:23:17.629Z,0.78
2022-11-26T11:24:25.626Z,0.77
2022-11-26T11:25:30.918Z,0.83
2022-11-26T11:26:44.984Z,0.85
2022-11-26T11:27:48.208Z,0.79
2022-11-26T11:28:53.185Z,0.74
2022-11-26T11:30:00.244Z,0.74
2022-11-26T11:31:15.109Z,0.79
2022-11-26T11:32:37.176Z,0.60
2022-11-26T11:33:41.583Z,0.68
2022-11-26T11:34:43.468Z,0.75
2022-11-26T11:36:01.275Z,0.71
2022-11-26T11:37:10.545Z,0.74
2022-11-26T11:39:31.254Z,0.85
2022-11-26T11:40:37.007Z,0.74
2022-11-26T11:41:48.551Z,0.56
2022-11-26T11:42:54.853Z,0.74
2022-11-26T11:44:18.886Z,0.69
2022-11-26T11:46:38.526Z,0.76
2022-11-26T11:47:42.849Z,0.68
2022-11-26T11:48:54.953Z,0.75
2022-11-26T11:50:06.581Z,0.83
2022-11-26T11:51:33.289Z,0.75
2022-11-26T11:52:50.788Z,0.80
2022-11-26T11:54:13.311Z,0.84
2022-11-26T11:55:19.098Z,0.85
2022-11-26T11:56:39.974Z,0.82
2022-11-26T11:57:57.783Z,0.82
2022-11-26T11:59:12.822Z,0.80
2022-11-26T12:00:20.824Z,0.70
2022-11-26T12:01:29.990Z,0.77
2022-11-26T12:02:38.741Z,0.71
2022-11-26T12:03:44.485Z,0.76
2022-11-26T12:05:19.478Z,0.77
2022-11-26T12:06:26.060Z,0.77
2022-11-26T12:07:40.515Z,0.70
2022-11-26T12:08:52.516Z,0.78
2022-11-26T12:10:16.578Z,0.79
2022-11-26T12:11:35.210Z,0.83
2022-11-26T12:13:57.729Z,0.86
2022-11-26T12:16:17.990Z,0.80
2022-11-26T12:17:33.190Z,0.75
2022-11-26T12:18:49.367Z,0.77
2022-11-26T12:20:10.402Z,0.80
2022-11-26T12:21:14.694Z,0.77
2022-11-26T12:22:23.182Z,0.86
2022-11-26T12:23:59.205Z,0.81
2022-11-26T12:25:07.624Z,0.83
2022-11-26T12:26:28.857Z,0.82
2022-11-26T12:27:34.572Z,0.83
2022-11-26T12:28:54.847Z,0.63
2022-11-26T12:30:00.553Z,0.76
2022-11-26T12:31:12.206Z,0.79
2022-11-26T12:32:20.640Z,0.77
2022-11-26T12:33:41.448Z,0.83
2022-11-26T12:34:47.246Z,0.87
2022-11-26T12:35:52.854Z,0.63
2022-11-26T12:36:58.613Z,0.64
2022-11-26T12:38:10.127Z,0.75
2022-11-26T12:39:13.710Z,0.71
2022-11-26T12:40:19.950Z,0.73
2022-11-26T12:41:31.143Z,0.83
2022-11-26T12:44:00.180Z,0.87
2022-11-26T12:45:24.518Z,0.86
2022-11-26T12:46:36.291Z,0.80
2022-11-26T12:47:44.949Z,0.87
2022-11-26T12:49:10.203Z,0.81
2022-11-26T12:50:29.191Z,0.78
2022-11-26T12:51:34.903Z,0.73
2022-11-26T12:52:52.706Z,0.80
2022-11-26T12:54:21.807Z,0.83
2022-11-26T12:55:36.745Z,0.86
2022-11-26T12:56:54.641Z,0.80
2022-11-26T12:59:41.474Z,1.04
2022-11-26T13:00:44.074Z,0.92
2022-11-26T13:01:46.560Z,0.99
2022-11-26T13:02:50.363Z,0.80
2022-11-26T13:04:08.376Z,0.87
2022-11-26T13:04:58.574Z,0.87
2022-11-26T13:06:13.012Z,0.92
2022-11-26T13:07:22.825Z,0.90
2022-11-26T13:08:52.815Z,0.92
2022-11-26T13:10:22.424Z,0.94
2022-11-26T13:11:37.424Z,0.88
2022-11-26T13:12:43.101Z,0.91
2022-11-26T13:14:05.854Z,0.89
2022-11-26T13:15:20.348Z,0.83
2022-11-26T13:16:38.263Z,0.88
2022-11-26T13:17:46.710Z,0.89
2022-11-26T13:19:03.963Z,0.63
2022-11-26T13:20:35.736Z,0.74
2022-11-26T13:22:05.866Z,0.84
2022-11-26T13:23:44.083Z,0.89
2022-11-26T13:25:08.084Z,0.84
2022-11-26T13:26:30.502Z,0.88
2022-11-26T13:27:48.505Z,0.89
2022-11-26T13:29:19.568Z,0.92
2022-11-26T13:30:51.482Z,0.81
2022-11-26T13:32:07.147Z,0.92
2022-11-26T13:33:23.006Z,0.94
2022-11-26T13:34:28.698Z,0.92
2022-11-26T13:35:49.268Z,0.77
2022-11-26T13:37:07.103Z,0.89
2022-11-26T13:38:34.039Z,0.94
2022-11-26T13:40:13.803Z,0.97
2022-11-26T13:41:36.677Z,0.96
2022-11-26T13:42:54.130Z,0.97
2022-11-26T13:44:16.954Z,0.98
2022-11-26T13:45:25.749Z,0.94
2022-11-26T13:46:31.616Z,0.95
2022-11-26T13:47:37.081Z,0.96
2022-11-26T13:48:51.251Z,0.97
2022-11-26T13:50:05.487Z,0.94
2022-11-26T13:51:20.176Z,0.94
2022-11-26T13:52:38.206Z,0.93
2022-11-26T13:53:43.856Z,1.05
2022-11-26T13:54:56.005Z,0.88
2022-11-26T13:56:01.379Z,0.93
2022-11-26T13:57:21.715Z,0.90
2022-11-26T13:58:34.102Z,0.94
2022-11-26T13:59:38.336Z,0.94
2022-11-26T14:00:40.337Z,0.92
2022-11-26T14:01:42.371Z,0.98
2022-11-26T14:02:44.788Z,0.89
2022-11-26T14:03:48.784Z,0.94
2022-11-26T14:04:52.475Z,0.99
2022-11-26T14:06:06.530Z,0.97
2022-11-26T14:07:08.723Z,0.96
2022-11-26T14:08:45.347Z,0.93
2022-11-26T14:11:04.378Z,1.06
2022-11-26T14:12:06.341Z,0.96
2022-11-26T14:13:10.878Z,0.95
2022-11-26T14:14:28.903Z,1.00
2022-11-26T14:15:43.835Z,0.96
2022-11-26T14:17:08.047Z,0.80
2022-11-26T14:18:12.891Z,0.88
2022-11-26T14:19:15.029Z,0.93
2022-11-26T14:20:17.100Z,0.97
2022-11-26T14:21:20.862Z,0.94
2022-11-26T14:22:29.519Z,0.95
2022-11-26T14:23:47.009Z,0.99
2022-11-26T14:24:52.755Z,0.91
2022-11-26T14:25:55.559Z,0.91
2022-11-26T14:26:57.599Z,0.83
2022-11-26T14:27:59.577Z,0.92
2022-11-26T14:29:10.994Z,0.72
2022-11-26T14:30:19.582Z,0.85
2022-11-26T14:31:28.114Z,0.87
2022-11-26T14:32:49.077Z,0.87
2022-11-26T14:33:54.399Z,0.82
2022-11-26T14:34:57.235Z,0.83
2022-11-26T14:35:59.109Z,0.87
2022-11-26T14:37:01.590Z,0.88
2022-11-26T14:38:06.266Z,0.80
2022-11-26T14:39:14.295Z,0.85
2022-11-26T14:40:29.248Z,0.86
2022-11-26T14:41:36.930Z,0.85
2022-11-26T14:42:38.820Z,0.82
2022-11-26T14:43:40.685Z,0.85
2022-11-26T14:44:43.544Z,0.88
2022-11-26T14:46:08.820Z,0.83
2022-11-26T14:47:17.754Z,0.89
2022-11-26T14:48:25.543Z,0.87
2022-11-26T14:49:36.766Z,0.90
2022-11-26T14:50:39.812Z,0.91
2022-11-26T14:51:45.258Z,0.97
2022-11-26T14:52:50.904Z,1.01
2022-11-26T14:53:54.627Z,0.86
2022-11-26T14:54:59.992Z,0.95
2022-11-26T20:08:29.945Z,0.04
2022-11-26T20:09:32.062Z,-0.12
2022-11-26T20:10:34.019Z,-0.12
2022-11-26T20:11:38.888Z,-0.04
2022-11-26T20:12:40.810Z,-0.12
2022-11-26T20:13:44.652Z,-0.09
2022-11-26T20:14:46.829Z,-0.11
2022-11-26T20:15:48.698Z,-0.05
2022-11-26T20:16:50.933Z,-0.03
2022-11-26T20:17:52.964Z,-0.06
2022-11-26T20:18:55.876Z,-0.08
2022-11-26T20:19:57.781Z,-0.05
2022-11-26T20:21:03.168Z,-0.04
2022-11-26T20:22:05.239Z,0.00
2022-11-26T20:23:07.798Z,0.06
2022-11-26T20:24:13.530Z,0.11
2022-11-26T20:25:15.642Z,-0.02
2022-11-26T20:26:21.514Z,0.03
2022-11-26T20:27:23.591Z,0.10
2022-11-26T20:28:26.142Z,0.10
2022-11-26T20:29:28.063Z,0.16
2022-11-26T20:30:31.467Z,0.16
2022-11-26T20:31:34.834Z,0.20
2022-11-26T20:32:37.600Z,0.07
2022-11-26T20:33:39.706Z,0.13
2022-11-26T20:34:41.607Z,0.06
2022-11-26T20:35:44.744Z,0.16
2022-11-26T20:36:47.442Z,0.14
2022-11-26T20:37:49.425Z,0.14
2022-11-26T20:40:03.807Z,0.33
2022-11-26T20:42:19.522Z,0.25
2022-11-26T20:43:21.375Z,0.06
2022-11-26T20:44:23.440Z,0.12
2022-11-26T20:45:25.403Z,0.11
2022-11-26T20:46:28.974Z,0.21
2022-11-26T20:47:31.099Z,0.22
2022-11-26T20:48:34.626Z,0.21
2022-11-26T20:49:41.446Z,0.21
2022-11-26T20:50:40.389Z,0.21
2022-11-26T20:51:42.289Z,0.23
2022-11-26T20:52:45.366Z,0.20
2022-11-26T20:53:49.085Z,0.11
2022-11-26T20:54:53.823Z,0.24
2022-11-26T20:55:56.109Z,0.18
2022-11-26T20:57:01.161Z,0.26
2022-11-26T20:58:03.075Z,0.17
2022-11-26T20:59:05.028Z,0.17
2022-11-26T21:00:08.781Z,0.23
2022-11-26T21:02:33.804Z,0.33
2022-11-26T21:03:35.725Z,0.20
2022-11-26T21:04:37.873Z,0.28
2022-11-26T21:05:39.712Z,0.28
2022-11-26T21:06:42.967Z,0.26
2022-11-26T21:07:44.933Z,0.27
2022-11-26T21:08:47.500Z,0.23
2022-11-26T21:09:49.371Z,0.18
2022-11-26T21:10:52.260Z,0.18
2022-11-26T21:11:54.156Z,0.05
2022-11-26T21:12:56.016Z,0.11
2022-11-26T21:13:59.100Z,0.07
2022-11-26T21:15:00.974Z,0.11
2022-11-26T21:16:06.504Z,0.09
2022-11-26T21:17:10.901Z,0.17
2022-11-26T21:18:13.999Z,0.14
2022-11-26T21:19:15.872Z,0.15
2022-11-26T21:20:18.064Z,0.15
2022-11-26T21:21:21.236Z,0.17
2022-11-26T21:22:23.240Z,0.15
2022-11-26T21:23:26.628Z,0.21
2022-11-26T21:24:28.513Z,0.27
2022-11-26T21:25:30.605Z,0.30
2022-11-26T21:26:34.048Z,0.33
2022-11-26T21:27:35.989Z,0.38
2022-11-26T21:28:39.357Z,0.38
2022-11-26T21:29:41.662Z,0.31
2022-11-26T21:30:44.323Z,0.35
2022-11-26T21:31:46.478Z,0.45
2022-11-26T21:32:48.360Z,0.40
2022-11-26T21:33:59.994Z,0.48
2022-11-26T21:35:01.889Z,0.50
2022-11-26T21:36:06.888Z,0.50
2022-11-26T21:37:08.781Z,0.54
2022-11-26T21:38:10.630Z,0.57
2022-11-26T21:39:14.985Z,0.51
2022-11-26T21:40:17.236Z,0.54
2022-11-26T21:41:20.815Z,0.59
2022-11-26T21:42:22.682Z,0.50
2022-11-26T21:43:25.236Z,0.58
2022-11-26T21:44:27.112Z,0.53
2022-11-26T21:45:28.976Z,0.57
2022-11-26T21:46:38.313Z,0.52
2022-11-26T21:47:38.047Z,0.38
2022-11-26T21:48:39.894Z,0.44
2022-11-26T21:49:41.880Z,0.48
2022-11-26T21:50:44.014Z,0.48
2022-11-26T21:51:45.883Z,0.51
2022-11-26T21:52:47.734Z,0.46
2022-11-26T21:53:50.076Z,0.29
2022-11-26T21:54:52.128Z,0.46
2022-11-26T21:55:54.600Z,0.46
2022-11-26T21:56:57.296Z,0.48
2022-11-26T21:57:59.153Z,0.55
2022-11-26T21:59:01.244Z,0.43
2022-11-26T22:00:04.499Z,0.43
2022-11-26T22:01:15.076Z,0.53
2022-11-26T22:02:18.295Z,0.49
2022-11-26T22:03:20.224Z,0.53
2022-11-26T22:04:22.106Z,0.52
2022-11-26T22:05:24.264Z,0.49
